Port Harcourt, Nigeria
Current Conditions -  °F | °C
As of 1:00 AM on Saturday 25 Oct 2014 (Local Time) from FKKD Reporting Station
Thunderstorm Thunderstorm  
Wind Chill: 79°   Ceiling: 1300
Heat Index: 83°   Visibility: 6mi
Dew Point: 77°   Wind: 0mph
Humidity: 94%   Direction: NA
Pressure: 29.85"   Gusts: NA
Location:  4.78°N, 7°E
Report Text: FKKD 250000Z 00000KT 9999 TS BKN013 FEW016CB 26/25 Q1011 NOSIG
Loading
Personal Weather Stations






























Interactive Weather Map
Tropical Storm Tracking
New forecast layout! Learn more

10-Day Weather Forecast

Advertisements
Track Severe Weather on mobile